createdAt,value
2022-08-05T00:00:15.942Z,2.22
2022-08-05T00:02:51.570Z,2.10
2022-08-05T00:06:02.475Z,2.10
2022-08-05T00:08:34.085Z,1.90
2022-08-05T00:11:01.727Z,1.50
2022-08-05T00:13:39.428Z,1.95
2022-08-05T00:16:11.064Z,2.38
2022-08-05T00:18:44.199Z,1.90
2022-08-05T00:21:11.412Z,1.92
2022-08-05T00:23:46.950Z,2.00
2022-08-05T00:26:20.833Z,2.42
2022-08-05T00:28:49.228Z,1.92
2022-08-05T00:31:16.638Z,1.83
2022-08-05T00:34:54.018Z,2.22
2022-08-05T00:37:11.883Z,1.90
2022-08-05T00:39:57.844Z,1.80
2022-08-05T00:42:37.861Z,1.95
2022-08-05T00:45:08.809Z,1.88
2022-08-05T00:47:56.801Z,1.63
2022-08-05T00:50:25.118Z,1.80
2022-08-05T00:52:53.397Z,1.80
2022-08-05T00:55:22.535Z,2.47
2022-08-05T00:57:58.621Z,1.75
2022-08-05T01:00:27.986Z,1.60
2022-08-05T01:02:59.827Z,1.65
2022-08-05T01:05:27.518Z,1.58
2022-08-05T01:08:42.278Z,1.67
2022-08-05T01:10:54.824Z,1.63
2022-08-05T01:13:58.288Z,1.65
2022-08-05T01:16:33.714Z,1.58
2022-08-05T01:19:12.215Z,1.80
2022-08-05T01:21:55.691Z,1.40
2022-08-05T01:24:40.530Z,1.58
2022-08-05T01:27:25.991Z,2.15
2022-08-05T01:29:56.131Z,1.60
2022-08-05T01:32:27.557Z,1.98
2022-08-05T01:35:02.148Z,2.22
2022-08-05T01:37:56.438Z,2.20
2022-08-05T01:40:30.764Z,1.50
2022-08-05T01:43:03.690Z,1.55
2022-08-05T01:45:34.867Z,1.83
2022-08-05T01:48:16.410Z,1.70
2022-08-05T01:50:51.042Z,1.90
2022-08-05T01:53:37.369Z,1.52
2022-08-05T01:56:12.262Z,1.60
2022-08-05T01:58:45.058Z,1.83
2022-08-05T02:01:14.654Z,1.35
2022-08-05T02:03:52.228Z,2.08
2022-08-05T02:06:37.464Z,1.63
2022-08-05T02:09:06.830Z,1.80
2022-08-05T02:11:55.525Z,1.17
2022-08-05T02:14:32.053Z,1.70
2022-08-05T02:17:29.675Z,1.53
2022-08-05T02:20:06.126Z,1.70
2022-08-05T02:22:44.909Z,1.60
2022-08-05T02:25:26.613Z,1.85
2022-08-05T02:30:36.923Z,1.60
2022-08-05T02:33:06.743Z,1.83
2022-08-05T02:35:37.722Z,1.60
2022-08-05T02:38:09.365Z,1.50
2022-08-05T02:40:44.442Z,1.75
2022-08-05T02:43:13.969Z,1.95
2022-08-05T02:45:52.095Z,1.58
2022-08-05T02:48:29.180Z,2.13
2022-08-05T02:50:59.906Z,1.80
2022-08-05T02:53:29.222Z,2.17
2022-08-05T02:56:06.987Z,2.00
2022-08-05T03:01:17.010Z,2.08
2022-08-05T03:04:02.934Z,1.80
2022-08-05T03:06:55.754Z,2.05
2022-08-05T03:09:26.844Z,1.77
2022-08-05T03:12:04.379Z,2.00
2022-08-05T03:17:00.673Z,2.00
2022-08-05T03:19:33.416Z,1.98
2022-08-05T03:22:04.684Z,1.92
2022-08-05T03:24:33.745Z,2.17
2022-08-05T03:27:01.819Z,1.90
2022-08-05T03:29:45.734Z,1.97
2022-08-05T03:32:17.859Z,1.83
2022-08-05T03:34:50.987Z,1.85
2022-08-05T03:37:19.783Z,1.98
2022-08-05T03:39:58.723Z,1.77
2022-08-05T03:42:27.009Z,2.10
2022-08-05T03:44:55.471Z,2.20
2022-08-05T03:47:24.489Z,2.05
2022-08-05T03:49:52.789Z,1.80
2022-08-05T03:52:49.297Z,2.10
2022-08-05T03:56:05.580Z,2.10
2022-08-05T03:58:12.465Z,2.20
2022-08-05T04:00:41.847Z,2.35
2022-08-05T04:03:15.006Z,2.20
2022-08-05T04:05:57.630Z,2.20
2022-08-05T04:08:35.953Z,2.00
2022-08-05T04:11:08.493Z,2.30
2022-08-05T04:13:50.808Z,1.90
2022-08-05T04:16:25.234Z,1.80
2022-08-05T04:19:01.228Z,2.03
2022-08-05T04:22:08.895Z,2.20
2022-08-05T04:24:18.927Z,1.75
2022-08-05T04:26:46.705Z,2.55
2022-08-05T04:29:14.258Z,1.80
2022-08-05T04:31:41.044Z,1.95
2022-08-05T04:34:31.813Z,2.05
2022-08-05T04:36:57.322Z,1.90
2022-08-05T04:39:23.986Z,2.13
2022-08-05T04:41:52.908Z,1.73
2022-08-05T04:44:21.559Z,2.30
2022-08-05T04:46:56.614Z,2.17
2022-08-05T04:49:24.843Z,2.17
2022-08-05T04:52:07.756Z,2.28
2022-08-05T04:54:35.043Z,1.95
2022-08-05T04:57:02.751Z,1.95
2022-08-05T04:59:38.618Z,1.77
2022-08-05T05:02:37.255Z,2.20
2022-08-05T05:05:02.404Z,2.10
2022-08-05T05:07:32.777Z,1.83
2022-08-05T05:10:05.368Z,1.48
2022-08-05T05:12:36.726Z,1.95
2022-08-05T05:15:10.731Z,2.03
2022-08-05T05:17:56.278Z,1.70
2022-08-05T05:20:28.328Z,2.00
2022-08-05T05:22:55.952Z,2.00
2022-08-05T05:25:32.628Z,2.00
2022-08-05T05:27:59.849Z,2.00
2022-08-05T05:30:30.576Z,2.20
2022-08-05T05:33:08.976Z,2.00
2022-08-05T05:35:46.869Z,1.98
2022-08-05T05:38:22.665Z,2.20
2022-08-05T05:40:58.294Z,2.20
2022-08-05T05:43:54.398Z,1.65
2022-08-05T05:46:17.798Z,1.77
2022-08-05T05:48:48.401Z,2.40
2022-08-05T05:51:25.727Z,1.88
2022-08-05T05:53:57.672Z,2.30
2022-08-05T05:56:33.185Z,1.50
2022-08-05T05:59:07.442Z,1.80
2022-08-05T06:01:39.667Z,1.77
2022-08-05T06:04:12.780Z,2.22
2022-08-05T06:06:47.368Z,1.80
2022-08-05T06:09:25.926Z,1.80
2022-08-05T06:12:04.802Z,1.70
2022-08-05T06:14:31.675Z,1.38
2022-08-05T06:17:01.862Z,1.50
2022-08-05T06:19:35.437Z,1.45
2022-08-05T06:22:09.330Z,1.58
2022-08-05T06:24:48.361Z,1.20
2022-08-05T06:27:17.246Z,1.40
2022-08-05T06:30:17.612Z,1.60
2022-08-05T06:32:46.908Z,1.67
2022-08-05T06:35:15.407Z,1.48
2022-08-05T06:37:58.060Z,2.08
2022-08-05T06:40:28.093Z,1.10
2022-08-05T06:43:00.285Z,1.65
2022-08-05T06:48:52.802Z,1.20
2022-08-05T06:51:09.380Z,1.37
2022-08-05T06:53:39.125Z,1.33
2022-08-05T06:56:16.298Z,1.20
2022-08-05T07:01:20.988Z,1.20
2022-08-05T07:03:47.919Z,0.82
2022-08-05T07:06:15.389Z,1.02
2022-08-05T07:08:47.345Z,1.10
2022-08-05T07:11:16.273Z,0.85
2022-08-05T07:14:04.284Z,0.75
2022-08-05T07:17:58.749Z,1.10
2022-08-05T07:22:28.308Z,1.17
2022-08-05T07:24:58.661Z,1.40
2022-08-05T07:27:27.659Z,1.02
2022-08-05T07:30:27.528Z,0.75
2022-08-05T07:32:58.319Z,0.80
2022-08-05T07:35:55.624Z,0.73
2022-08-05T07:38:32.896Z,0.90
2022-08-05T07:42:06.799Z,0.93
2022-08-05T07:43:56.557Z,0.80
2022-08-05T07:46:26.334Z,1.48
2022-08-05T07:49:05.400Z,0.90
2022-08-05T07:51:37.518Z,1.02
2022-08-05T07:54:18.625Z,0.70
2022-08-05T07:57:01.950Z,0.68
2022-08-05T07:59:40.479Z,1.10
2022-08-05T08:02:15.634Z,0.70
2022-08-05T08:04:48.420Z,0.70
2022-08-05T08:07:16.423Z,0.73
2022-08-05T08:09:47.345Z,0.60
2022-08-05T08:12:35.457Z,0.63
2022-08-05T08:15:09.420Z,0.68
2022-08-05T08:17:46.243Z,0.50
2022-08-05T08:20:59.896Z,0.60
2022-08-05T08:24:00.199Z,0.68
2022-08-05T08:26:00.215Z,0.75
2022-08-05T08:28:36.671Z,0.75
2022-08-05T08:31:04.334Z,0.70
2022-08-05T08:33:37.693Z,0.65
2022-08-05T08:36:29.776Z,0.50
2022-08-05T08:38:55.692Z,0.80
2022-08-05T08:41:26.089Z,0.70
2022-08-05T08:45:19.193Z,0.60
2022-08-05T08:47:47.626Z,0.60
2022-08-05T08:50:22.604Z,0.70
2022-08-05T08:53:07.941Z,0.63
2022-08-05T08:56:03.865Z,1.00
2022-08-05T08:58:37.087Z,0.60
2022-08-05T09:01:18.310Z,0.50
2022-08-05T09:03:55.332Z,0.50
2022-08-05T09:06:28.090Z,0.68
2022-08-05T09:09:01.785Z,0.55
2022-08-05T09:11:53.770Z,0.45
2022-08-05T09:14:57.460Z,0.60
2022-08-05T09:17:09.684Z,0.50
2022-08-05T09:20:02.622Z,1.73
2022-08-05T09:23:18.746Z,0.50
2022-08-05T09:26:02.277Z,0.77
2022-08-05T09:28:33.391Z,0.50
2022-08-05T09:32:38.525Z,0.60
2022-08-05T09:33:59.063Z,0.70
2022-08-05T09:36:54.142Z,0.65
2022-08-05T09:39:39.380Z,0.40
2022-08-05T09:42:24.039Z,0.75
2022-08-05T09:45:17.615Z,0.57
2022-08-05T09:47:55.372Z,0.65
2022-08-05T09:50:44.605Z,0.60
2022-08-05T09:53:23.169Z,0.55
2022-08-05T09:56:04.917Z,0.65
2022-08-05T09:58:41.867Z,0.57
2022-08-05T10:01:14.895Z,0.55
2022-08-05T10:04:03.170Z,0.55
2022-08-05T10:06:31.180Z,0.43
2022-08-05T10:09:27.605Z,0.65
2022-08-05T10:11:57.472Z,0.50
2022-08-05T10:14:32.233Z,0.68
2022-08-05T10:17:37.188Z,0.38
2022-08-05T10:20:10.886Z,0.50
2022-08-05T10:22:43.132Z,0.70
2022-08-05T10:25:17.418Z,0.50
2022-08-05T10:28:13.058Z,0.50
2022-08-05T10:31:20.141Z,0.68
2022-08-05T10:33:23.475Z,0.68
2022-08-05T10:36:00.037Z,0.57
2022-08-05T10:38:29.180Z,0.50
2022-08-05T10:41:46.545Z,0.43
2022-08-05T10:44:18.424Z,0.40
2022-08-05T10:46:54.207Z,0.70
2022-08-05T10:49:26.930Z,0.40
2022-08-05T10:52:02.628Z,0.50
2022-08-05T10:55:02.946Z,0.40
2022-08-05T10:57:31.896Z,0.70
2022-08-05T11:00:18.692Z,0.43
2022-08-05T11:03:24.529Z,0.73
2022-08-05T11:08:39.199Z,0.30
2022-08-05T11:11:33.201Z,0.40
2022-08-05T11:14:13.000Z,0.60
2022-08-05T11:16:57.932Z,0.47
2022-08-05T11:20:10.555Z,0.50
2022-08-05T11:22:44.049Z,0.55
2022-08-05T11:26:05.069Z,0.38
2022-08-05T11:28:33.386Z,0.65
2022-08-05T11:31:06.482Z,0.30
2022-08-05T11:33:46.518Z,0.50
2022-08-05T11:36:34.249Z,0.57
2022-08-05T11:39:07.023Z,0.55
2022-08-05T11:42:01.021Z,0.35
2022-08-05T11:44:53.010Z,0.63
2022-08-05T11:47:15.116Z,0.40
2022-08-05T11:50:01.729Z,0.68
2022-08-05T11:52:31.058Z,0.32
2022-08-05T11:55:07.144Z,0.50
2022-08-05T11:58:08.027Z,0.60
2022-08-05T12:00:31.748Z,0.57
2022-08-05T12:02:59.972Z,0.50
2022-08-05T12:05:36.444Z,0.60
2022-08-05T12:08:10.903Z,0.70
2022-08-05T12:10:45.095Z,0.70
2022-08-05T12:13:28.130Z,0.45
2022-08-05T12:16:14.156Z,0.60
2022-08-05T12:18:52.150Z,0.50
2022-08-05T12:21:49.751Z,0.30
2022-08-05T12:26:46.483Z,1.10
2022-08-05T12:29:27.820Z,0.47
2022-08-05T12:32:07.414Z,0.40
2022-08-05T12:34:38.156Z,0.60
2022-08-05T12:37:17.014Z,0.50
2022-08-05T12:39:51.032Z,0.50
2022-08-05T12:42:25.390Z,0.68
2022-08-05T12:44:52.259Z,0.50
2022-08-05T12:47:33.468Z,0.60
2022-08-05T12:50:06.007Z,0.50
2022-08-05T12:52:41.901Z,0.60
2022-08-05T12:55:26.334Z,0.55
2022-08-05T12:58:38.893Z,0.80
2022-08-05T13:02:03.464Z,0.70
2022-08-05T13:03:42.464Z,0.68
2022-08-05T13:06:16.137Z,0.55
2022-08-05T13:08:51.791Z,0.45
2022-08-05T13:12:01.554Z,0.60
2022-08-05T13:14:19.351Z,0.65
2022-08-05T13:16:51.938Z,0.45
2022-08-05T13:19:24.853Z,0.43
2022-08-05T13:21:56.026Z,0.55
2022-08-05T13:24:36.292Z,0.50
2022-08-05T13:27:11.431Z,0.68
2022-08-05T13:30:35.144Z,0.68
2022-08-05T13:35:22.407Z,0.70
2022-08-05T13:37:58.353Z,0.40
2022-08-05T13:40:47.885Z,0.73
2022-08-05T13:43:22.221Z,0.65
2022-08-05T13:45:51.746Z,0.80
2022-08-05T13:48:58.647Z,0.73
2022-08-05T13:53:34.686Z,0.70
2022-08-05T13:56:19.290Z,0.60
2022-08-05T13:58:52.991Z,0.60
2022-08-05T14:01:27.413Z,0.73
2022-08-05T14:04:28.428Z,0.68
2022-08-05T14:06:58.660Z,0.65
2022-08-05T14:09:46.129Z,0.70
2022-08-05T14:12:18.117Z,0.68
2022-08-05T14:14:58.645Z,0.65
2022-08-05T14:17:28.302Z,0.80
2022-08-05T14:20:00.993Z,0.50
2022-08-05T14:22:34.291Z,0.57
2022-08-05T14:25:21.485Z,0.50
2022-08-05T14:27:51.576Z,0.52
2022-08-05T14:30:20.483Z,0.60
2022-08-05T14:32:47.826Z,0.55
2022-08-05T14:35:14.597Z,0.60
2022-08-05T14:37:47.977Z,0.60
2022-08-05T14:40:16.744Z,0.50
2022-08-05T14:42:44.259Z,0.70
2022-08-05T14:45:14.002Z,0.70
2022-08-05T14:48:05.556Z,0.63
2022-08-05T14:50:29.616Z,0.55
2022-08-05T14:52:58.632Z,0.80
2022-08-05T14:55:28.728Z,0.60
2022-08-05T14:58:11.666Z,0.65
2022-08-05T15:00:59.294Z,0.60
2022-08-05T15:03:33.968Z,0.40
2022-08-05T15:06:14.819Z,0.57
2022-08-05T15:08:59.553Z,0.60
2022-08-05T15:11:51.223Z,0.65
2022-08-05T15:14:33.641Z,0.50
2022-08-05T15:17:03.657Z,0.60
2022-08-05T15:19:30.730Z,0.60
2022-08-05T15:21:59.882Z,0.60
2022-08-05T15:24:27.992Z,0.73
2022-08-05T15:26:55.761Z,0.60
2022-08-05T15:29:22.927Z,0.80
2022-08-05T15:31:52.759Z,0.60
2022-08-05T15:34:33.120Z,0.52
2022-08-05T15:37:06.121Z,0.47
2022-08-05T15:41:00.284Z,0.63
2022-08-05T15:42:54.714Z,0.85
2022-08-05T15:45:09.743Z,0.95
2022-08-05T15:47:36.540Z,1.38
2022-08-05T15:50:04.068Z,0.52
2022-08-05T15:55:25.069Z,0.60
2022-08-05T15:58:09.474Z,0.47
2022-08-05T16:01:03.563Z,0.77
2022-08-05T16:03:32.619Z,0.93
2022-08-05T16:06:00.404Z,0.98
2022-08-05T16:08:30.789Z,0.85
2022-08-05T16:10:58.163Z,0.57
2022-08-05T16:13:34.198Z,0.77
2022-08-05T16:16:01.784Z,0.90
2022-08-05T16:18:30.550Z,0.80
2022-08-05T16:20:58.737Z,0.68
2022-08-05T16:23:32.924Z,0.70
2022-08-05T16:26:26.400Z,0.77
2022-08-05T16:28:54.658Z,0.90
2022-08-05T16:31:22.251Z,0.90
2022-08-05T16:38:54.962Z,1.08
2022-08-05T16:42:27.858Z,0.70
2022-08-05T16:44:11.674Z,1.33
2022-08-05T16:46:55.636Z,0.60
2022-08-05T16:49:24.087Z,0.70
2022-08-05T16:51:54.725Z,0.85
2022-08-05T16:54:28.923Z,0.60
2022-08-05T16:56:59.842Z,0.63
2022-08-05T16:59:27.878Z,0.63
2022-08-05T17:01:57.331Z,1.05
2022-08-05T17:04:28.180Z,1.42
2022-08-05T17:07:01.184Z,0.52
2022-08-05T17:09:38.834Z,0.60
2022-08-05T17:12:51.353Z,0.98
2022-08-05T17:15:10.024Z,0.80
2022-08-05T17:17:42.941Z,0.95
2022-08-05T17:20:14.538Z,0.88
2022-08-05T17:22:45.868Z,0.75
2022-08-05T17:25:40.067Z,0.70
2022-08-05T17:28:07.788Z,0.50
2022-08-05T17:30:42.532Z,0.52
2022-08-05T17:33:20.775Z,0.80
2022-08-05T17:36:10.072Z,0.90
2022-08-05T17:38:34.507Z,0.98
2022-08-05T17:41:01.607Z,0.60
2022-08-05T17:43:46.675Z,1.00
2022-08-05T17:46:17.508Z,0.68
2022-08-05T17:48:44.970Z,1.00
2022-08-05T17:51:21.870Z,0.80
2022-08-05T17:53:50.696Z,1.17
2022-08-05T17:56:21.538Z,0.98
2022-08-05T17:58:51.993Z,1.27
2022-08-05T18:01:19.370Z,0.82
2022-08-05T18:03:58.596Z,0.98
2022-08-05T18:06:31.124Z,0.80
2022-08-05T18:09:00.150Z,0.55
2022-08-05T18:11:33.849Z,0.52
2022-08-05T18:14:03.556Z,1.00
2022-08-05T18:16:31.181Z,1.08
2022-08-05T18:18:57.910Z,1.02
2022-08-05T18:21:26.050Z,0.70
2022-08-05T18:23:54.309Z,0.98
2022-08-05T18:26:29.264Z,0.90
2022-08-05T18:28:58.792Z,1.08
2022-08-05T18:31:25.849Z,1.20
2022-08-05T18:34:05.740Z,1.10
2022-08-05T18:36:36.465Z,0.93
2022-08-05T18:39:09.756Z,0.80
2022-08-05T18:41:58.406Z,0.68
2022-08-05T18:44:33.179Z,0.77
2022-08-05T18:47:04.046Z,0.98
2022-08-05T18:49:58.122Z,1.50
2022-08-05T18:52:33.620Z,0.85
2022-08-05T18:55:10.744Z,0.68
2022-08-05T18:57:43.610Z,1.08
2022-08-05T19:00:21.040Z,0.88
2022-08-05T19:02:55.431Z,0.77
2022-08-05T19:06:11.728Z,0.80
2022-08-05T19:08:13.722Z,0.82
2022-08-05T19:10:47.268Z,0.70
2022-08-05T19:13:16.011Z,1.15
2022-08-05T19:15:58.950Z,1.00
2022-08-05T19:18:27.057Z,1.08
2022-08-05T19:20:54.717Z,1.10
2022-08-05T19:24:07.587Z,0.80
2022-08-05T19:26:09.493Z,0.90
2022-08-05T19:28:43.389Z,1.42
2022-08-05T19:31:19.290Z,0.88
2022-08-05T19:36:27.274Z,0.95
2022-08-05T19:39:00.521Z,1.02
2022-08-05T19:41:58.397Z,0.93
2022-08-05T19:44:16.928Z,1.20
2022-08-05T19:46:47.655Z,1.10
2022-08-05T19:49:17.783Z,0.90
2022-08-05T19:52:05.598Z,1.50
2022-08-05T19:57:06.626Z,1.20
2022-08-05T19:59:59.287Z,1.00
2022-08-05T20:02:28.149Z,0.80
2022-08-05T20:04:58.488Z,0.93
2022-08-05T20:07:46.829Z,1.10
2022-08-05T20:10:14.135Z,1.50
2022-08-05T20:12:48.326Z,0.82
2022-08-05T20:15:48.192Z,1.38
2022-08-05T20:18:04.363Z,1.02
2022-08-05T20:20:38.696Z,1.00
2022-08-05T20:23:05.505Z,1.10
2022-08-05T20:25:39.869Z,1.05
2022-08-05T20:28:08.184Z,1.20
2022-08-05T20:30:40.847Z,1.25
2022-08-05T20:35:40.528Z,1.17
2022-08-05T20:38:20.107Z,0.90
2022-08-05T20:40:58.515Z,1.02
2022-08-05T20:43:33.158Z,0.80
2022-08-05T20:46:18.531Z,1.05
2022-08-05T20:48:54.757Z,1.00
2022-08-05T20:51:22.161Z,1.02
2022-08-05T20:53:56.610Z,0.98
2022-08-05T20:56:29.962Z,1.33
2022-08-05T20:59:11.288Z,0.90
2022-08-05T21:01:41.246Z,1.10
2022-08-05T21:04:10.954Z,0.73
2022-08-05T21:06:45.035Z,1.20
2022-08-05T21:09:12.893Z,0.95
2022-08-05T21:12:09.513Z,1.08
2022-08-05T21:14:28.624Z,0.90
2022-08-05T21:16:58.700Z,1.10
2022-08-05T21:19:28.337Z,0.98
2022-08-05T21:21:54.995Z,0.90
2022-08-05T21:24:22.257Z,0.75
2022-08-05T21:26:57.873Z,0.90
2022-08-05T21:29:31.961Z,0.93
2022-08-05T21:31:59.933Z,0.95
2022-08-05T21:34:29.303Z,1.17
2022-08-05T21:36:58.700Z,0.98
2022-08-05T21:39:26.668Z,1.42
2022-08-05T21:42:01.155Z,0.95
2022-08-05T21:44:29.020Z,1.02
2022-08-05T21:46:58.199Z,1.00
2022-08-05T21:50:00.131Z,1.20
2022-08-05T21:52:15.751Z,1.10
2022-08-05T21:54:55.339Z,0.80
2022-08-05T21:57:31.501Z,1.30
2022-08-05T22:00:06.041Z,1.13
2022-08-05T22:02:35.260Z,0.90
2022-08-05T22:05:05.014Z,0.90
2022-08-05T22:07:39.416Z,1.10
2022-08-05T22:10:08.796Z,1.08
2022-08-05T22:12:40.334Z,1.05
2022-08-05T22:15:16.584Z,1.10
2022-08-05T22:17:59.767Z,1.10
2022-08-05T22:20:26.923Z,1.40
2022-08-05T22:23:17.009Z,1.27
2022-08-05T22:26:10.149Z,1.00
2022-08-05T22:28:38.643Z,1.15
2022-08-05T22:31:05.842Z,1.30
2022-08-05T22:33:57.050Z,1.27
2022-08-05T22:36:23.770Z,1.30
2022-08-05T22:38:52.173Z,1.08
2022-08-05T22:42:04.611Z,1.20
2022-08-05T22:44:08.785Z,1.33
2022-08-05T22:46:40.080Z,1.17
2022-08-05T22:49:23.590Z,1.30
2022-08-05T22:52:06.136Z,1.27
2022-08-05T22:54:37.699Z,1.17
2022-08-05T22:57:06.512Z,1.10
2022-08-05T22:59:45.962Z,1.13
2022-08-05T23:02:29.717Z,1.10
2022-08-05T23:05:01.441Z,1.10
2022-08-05T23:07:31.573Z,1.23
2022-08-05T23:10:01.936Z,1.10
2022-08-05T23:12:32.663Z,1.25
2022-08-05T23:15:03.431Z,0.93
2022-08-05T23:17:34.060Z,0.90
2022-08-05T23:20:15.481Z,0.90
2022-08-05T23:22:43.599Z,0.90
2022-08-05T23:25:50.870Z,1.30
2022-08-05T23:28:07.114Z,1.00
2022-08-05T23:30:39.657Z,1.10
2022-08-05T23:33:07.457Z,1.05
2022-08-05T23:35:49.039Z,0.93
2022-08-05T23:38:18.685Z,1.13
2022-08-05T23:40:49.484Z,1.23
2022-08-05T23:43:25.498Z,1.00
2022-08-05T23:46:19.723Z,1.35
2022-08-05T23:48:59.912Z,1.15
2022-08-05T23:52:01.945Z,1.40
2022-08-05T23:54:34.247Z,1.35
2022-08-05T23:57:04.705Z,0.90
